sensor_id;sensor_type;location;lat;lon;timestamp;P1;durP1;ratioP1;P2;durP2;ratioP2
42132;SDS011;70517;48.192;16.278;2023-07-28T00:05:40;1.90;;;1.10;;
42132;SDS011;70517;48.192;16.278;2023-07-28T00:11:41;1.30;;;0.80;;
42132;SDS011;70517;48.192;16.278;2023-07-28T00:14:41;1.43;;;0.90;;
42132;SDS011;70517;48.192;16.278;2023-07-28T00:20:42;1.48;;;1.00;;
42132;SDS011;70517;48.192;16.278;2023-07-28T00:23:43;1.55;;;1.00;;
42132;SDS011;70517;48.192;16.278;2023-07-28T00:29:43;1.25;;;0.95;;
42132;SDS011;70517;48.192;16.278;2023-07-28T00:35:43;0.90;;;0.80;;
42132;SDS011;70517;48.192;16.278;2023-07-28T00:41:44;1.10;;;0.98;;
42132;SDS011;70517;48.192;16.278;2023-07-28T00:47:45;2.55;;;0.90;;
42132;SDS011;70517;48.192;16.278;2023-07-28T00:53:46;1.52;;;0.85;;
42132;SDS011;70517;48.192;16.278;2023-07-28T00:59:46;1.30;;;1.10;;
42132;SDS011;70517;48.192;16.278;2023-07-28T01:05:53;1.13;;;0.95;;
42132;SDS011;70517;48.192;16.278;2023-07-28T01:11:58;1.48;;;1.00;;
42132;SDS011;70517;48.192;16.278;2023-07-28T01:17:59;0.90;;;0.77;;
42132;SDS011;70517;48.192;16.278;2023-07-28T01:21:00;1.10;;;1.00;;
42132;SDS011;70517;48.192;16.278;2023-07-28T01:24:06;1.25;;;1.15;;
42132;SDS011;70517;48.192;16.278;2023-07-28T01:30:12;0.70;;;0.70;;
42132;SDS011;70517;48.192;16.278;2023-07-28T01:33:12;1.13;;;1.00;;
42132;SDS011;70517;48.192;16.278;2023-07-28T01:39:13;0.90;;;0.87;;
42132;SDS011;70517;48.192;16.278;2023-07-28T01:45:13;0.80;;;0.80;;
42132;SDS011;70517;48.192;16.278;2023-07-28T01:51:13;1.17;;;0.82;;
42132;SDS011;70517;48.192;16.278;2023-07-28T01:57:14;0.90;;;0.65;;
42132;SDS011;70517;48.192;16.278;2023-07-28T02:03:14;1.40;;;0.88;;
42132;SDS011;70517;48.192;16.278;2023-07-28T02:09:14;0.90;;;0.80;;
42132;SDS011;70517;48.192;16.278;2023-07-28T02:15:15;0.90;;;0.70;;
42132;SDS011;70517;48.192;16.278;2023-07-28T02:21:18;0.80;;;0.80;;
42132;SDS011;70517;48.192;16.278;2023-07-28T02:27:18;1.25;;;0.90;;
42132;SDS011;70517;48.192;16.278;2023-07-28T02:33:19;1.20;;;1.00;;
42132;SDS011;70517;48.192;16.278;2023-07-28T02:39:19;0.88;;;0.88;;
42132;SDS011;70517;48.192;16.278;2023-07-28T02:45:20;1.10;;;0.90;;
42132;SDS011;70517;48.192;16.278;2023-07-28T02:51:21;0.73;;;0.70;;
42132;SDS011;70517;48.192;16.278;2023-07-28T02:54:21;0.80;;;0.77;;
42132;SDS011;70517;48.192;16.278;2023-07-28T02:57:23;0.93;;;0.88;;
42132;SDS011;70517;48.192;16.278;2023-07-28T03:03:24;1.58;;;1.10;;
42132;SDS011;70517;48.192;16.278;2023-07-28T03:09:24;0.70;;;0.70;;
42132;SDS011;70517;48.192;16.278;2023-07-28T03:15:24;1.85;;;0.90;;
42132;SDS011;70517;48.192;16.278;2023-07-28T03:21:25;1.20;;;0.80;;
42132;SDS011;70517;48.192;16.278;2023-07-28T03:27:25;1.08;;;0.98;;
42132;SDS011;70517;48.192;16.278;2023-07-28T03:33:26;0.93;;;0.82;;
42132;SDS011;70517;48.192;16.278;2023-07-28T03:39:26;1.15;;;0.93;;
42132;SDS011;70517;48.192;16.278;2023-07-28T03:45:26;1.67;;;0.88;;
42132;SDS011;70517;48.192;16.278;2023-07-28T03:51:27;1.15;;;0.75;;
42132;SDS011;70517;48.192;16.278;2023-07-28T03:57:27;0.98;;;0.80;;
42132;SDS011;70517;48.192;16.278;2023-07-28T04:00:29;1.20;;;1.10;;
42132;SDS011;70517;48.192;16.278;2023-07-28T04:06:42;2.00;;;1.17;;
42132;SDS011;70517;48.192;16.278;2023-07-28T04:09:43;1.77;;;1.30;;
42132;SDS011;70517;48.192;16.278;2023-07-28T04:15:43;3.10;;;1.70;;
42132;SDS011;70517;48.192;16.278;2023-07-28T04:21:43;1.52;;;1.23;;
42132;SDS011;70517;48.192;16.278;2023-07-28T04:27:44;2.10;;;1.48;;
42132;SDS011;70517;48.192;16.278;2023-07-28T04:33:44;2.92;;;1.40;;
42132;SDS011;70517;48.192;16.278;2023-07-28T04:39:45;1.38;;;1.15;;
42132;SDS011;70517;48.192;16.278;2023-07-28T04:45:46;1.47;;;1.00;;
42132;SDS011;70517;48.192;16.278;2023-07-28T04:51:46;1.38;;;1.02;;
42132;SDS011;70517;48.192;16.278;2023-07-28T04:57:52;1.13;;;0.88;;
42132;SDS011;70517;48.192;16.278;2023-07-28T05:03:52;2.22;;;1.05;;
42132;SDS011;70517;48.192;16.278;2023-07-28T05:09:53;1.73;;;0.85;;
42132;SDS011;70517;48.192;16.278;2023-07-28T05:15:55;1.38;;;0.95;;
42132;SDS011;70517;48.192;16.278;2023-07-28T05:18:56;2.03;;;1.10;;
42132;SDS011;70517;48.192;16.278;2023-07-28T05:24:56;2.22;;;1.20;;
42132;SDS011;70517;48.192;16.278;2023-07-28T05:31:03;2.03;;;1.05;;
42132;SDS011;70517;48.192;16.278;2023-07-28T05:34:03;1.58;;;1.25;;
42132;SDS011;70517;48.192;16.278;2023-07-28T05:40:04;1.98;;;1.30;;
42132;SDS011;70517;48.192;16.278;2023-07-28T05:43:05;3.45;;;2.30;;
42132;SDS011;70517;48.192;16.278;2023-07-28T05:49:05;3.42;;;1.85;;
42132;SDS011;70517;48.192;16.278;2023-07-28T05:52:06;2.05;;;1.60;;
42132;SDS011;70517;48.192;16.278;2023-07-28T05:55:06;2.70;;;1.80;;
42132;SDS011;70517;48.192;16.278;2023-07-28T05:58:06;2.40;;;1.60;;
42132;SDS011;70517;48.192;16.278;2023-07-28T06:01:06;1.98;;;1.30;;
42132;SDS011;70517;48.192;16.278;2023-07-28T06:04:07;1.70;;;1.40;;
42132;SDS011;70517;48.192;16.278;2023-07-28T06:07:07;1.33;;;1.23;;
42132;SDS011;70517;48.192;16.278;2023-07-28T06:10:08;1.53;;;1.20;;
42132;SDS011;70517;48.192;16.278;2023-07-28T06:13:08;1.98;;;1.42;;
42132;SDS011;70517;48.192;16.278;2023-07-28T06:16:08;3.23;;;1.40;;
42132;SDS011;70517;48.192;16.278;2023-07-28T06:19:08;1.65;;;1.25;;
42132;SDS011;70517;48.192;16.278;2023-07-28T06:22:09;2.20;;;1.10;;
42132;SDS011;70517;48.192;16.278;2023-07-28T06:25:09;3.15;;;1.33;;
42132;SDS011;70517;48.192;16.278;2023-07-28T06:28:11;1.48;;;1.35;;
42132;SDS011;70517;48.192;16.278;2023-07-28T06:31:11;1.00;;;1.00;;
42132;SDS011;70517;48.192;16.278;2023-07-28T06:34:11;2.03;;;1.17;;
42132;SDS011;70517;48.192;16.278;2023-07-28T06:37:12;1.57;;;1.30;;
42132;SDS011;70517;48.192;16.278;2023-07-28T06:40:12;2.03;;;1.40;;
42132;SDS011;70517;48.192;16.278;2023-07-28T06:43:12;1.90;;;1.38;;
42132;SDS011;70517;48.192;16.278;2023-07-28T06:46:12;2.45;;;1.30;;
42132;SDS011;70517;48.192;16.278;2023-07-28T06:49:13;1.90;;;1.40;;
42132;SDS011;70517;48.192;16.278;2023-07-28T06:52:13;1.77;;;1.27;;
42132;SDS011;70517;48.192;16.278;2023-07-28T06:55:16;1.60;;;1.30;;
42132;SDS011;70517;48.192;16.278;2023-07-28T06:58:17;1.60;;;1.15;;
42132;SDS011;70517;48.192;16.278;2023-07-28T07:01:17;1.75;;;1.40;;
42132;SDS011;70517;48.192;16.278;2023-07-28T07:04:18;4.85;;;1.25;;
42132;SDS011;70517;48.192;16.278;2023-07-28T07:07:19;1.60;;;1.23;;
42132;SDS011;70517;48.192;16.278;2023-07-28T07:10:19;1.77;;;1.33;;
42132;SDS011;70517;48.192;16.278;2023-07-28T07:13:20;1.50;;;1.40;;
42132;SDS011;70517;48.192;16.278;2023-07-28T07:16:21;1.33;;;1.23;;
42132;SDS011;70517;48.192;16.278;2023-07-28T07:19:21;3.33;;;1.40;;
42132;SDS011;70517;48.192;16.278;2023-07-28T07:22:22;1.70;;;1.43;;
42132;SDS011;70517;48.192;16.278;2023-07-28T07:25:22;1.50;;;1.30;;
42132;SDS011;70517;48.192;16.278;2023-07-28T07:28:22;1.63;;;1.30;;
42132;SDS011;70517;48.192;16.278;2023-07-28T07:31:22;1.70;;;1.38;;
42132;SDS011;70517;48.192;16.278;2023-07-28T07:34:26;1.30;;;1.20;;
42132;SDS011;70517;48.192;16.278;2023-07-28T07:37:26;1.13;;;1.02;;
42132;SDS011;70517;48.192;16.278;2023-07-28T07:40:34;1.38;;;1.25;;
42132;SDS011;70517;48.192;16.278;2023-07-28T07:43:35;2.13;;;1.40;;
42132;SDS011;70517;48.192;16.278;2023-07-28T07:46:35;1.53;;;1.43;;
42132;SDS011;70517;48.192;16.278;2023-07-28T07:49:35;1.90;;;1.20;;
42132;SDS011;70517;48.192;16.278;2023-07-28T07:52:38;1.85;;;1.45;;
42132;SDS011;70517;48.192;16.278;2023-07-28T07:55:44;2.25;;;1.30;;
42132;SDS011;70517;48.192;16.278;2023-07-28T07:58:44;1.50;;;1.30;;
42132;SDS011;70517;48.192;16.278;2023-07-28T08:01:55;1.88;;;1.30;;
42132;SDS011;70517;48.192;16.278;2023-07-28T08:04:55;1.45;;;1.30;;
42132;SDS011;70517;48.192;16.278;2023-07-28T08:07:55;1.37;;;1.27;;
42132;SDS011;70517;48.192;16.278;2023-07-28T08:10:56;1.63;;;1.40;;
42132;SDS011;70517;48.192;16.278;2023-07-28T08:13:56;1.55;;;1.45;;
42132;SDS011;70517;48.192;16.278;2023-07-28T08:16:56;1.43;;;1.30;;
42132;SDS011;70517;48.192;16.278;2023-07-28T08:19:57;1.43;;;1.33;;
42132;SDS011;70517;48.192;16.278;2023-07-28T08:22:57;1.60;;;1.47;;
42132;SDS011;70517;48.192;16.278;2023-07-28T08:25:57;1.60;;;1.13;;
42132;SDS011;70517;48.192;16.278;2023-07-28T08:28:58;1.40;;;1.30;;
42132;SDS011;70517;48.192;16.278;2023-07-28T08:31:58;2.20;;;1.20;;
42132;SDS011;70517;48.192;16.278;2023-07-28T08:34:58;1.30;;;1.20;;
42132;SDS011;70517;48.192;16.278;2023-07-28T08:37:59;2.33;;;1.27;;
42132;SDS011;70517;48.192;16.278;2023-07-28T08:40:59;1.43;;;1.33;;
42132;SDS011;70517;48.192;16.278;2023-07-28T08:43:59;1.25;;;1.15;;
42132;SDS011;70517;48.192;16.278;2023-07-28T08:47:00;1.63;;;1.40;;
42132;SDS011;70517;48.192;16.278;2023-07-28T08:50:00;1.70;;;1.60;;
42132;SDS011;70517;48.192;16.278;2023-07-28T08:53:01;1.95;;;1.30;;
42132;SDS011;70517;48.192;16.278;2023-07-28T08:56:01;1.47;;;1.10;;
42132;SDS011;70517;48.192;16.278;2023-07-28T08:59:01;1.63;;;1.40;;
42132;SDS011;70517;48.192;16.278;2023-07-28T09:02:02;2.27;;;1.20;;
42132;SDS011;70517;48.192;16.278;2023-07-28T09:05:04;1.75;;;1.45;;
42132;SDS011;70517;48.192;16.278;2023-07-28T09:08:06;1.65;;;1.25;;
42132;SDS011;70517;48.192;16.278;2023-07-28T09:11:06;1.80;;;1.30;;
42132;SDS011;70517;48.192;16.278;2023-07-28T09:14:07;1.88;;;1.60;;
42132;SDS011;70517;48.192;16.278;2023-07-28T09:17:11;1.90;;;1.70;;
42132;SDS011;70517;48.192;16.278;2023-07-28T09:20:14;1.55;;;1.45;;
42132;SDS011;70517;48.192;16.278;2023-07-28T09:23:15;2.25;;;1.42;;
42132;SDS011;70517;48.192;16.278;2023-07-28T09:26:16;1.90;;;1.65;;
42132;SDS011;70517;48.192;16.278;2023-07-28T09:29:17;2.03;;;1.60;;
42132;SDS011;70517;48.192;16.278;2023-07-28T09:32:26;2.55;;;1.65;;
42132;SDS011;70517;48.192;16.278;2023-07-28T09:35:28;2.70;;;1.73;;
42132;SDS011;70517;48.192;16.278;2023-07-28T09:38:28;2.87;;;1.87;;
42132;SDS011;70517;48.192;16.278;2023-07-28T09:41:29;2.55;;;1.40;;
42132;SDS011;70517;48.192;16.278;2023-07-28T09:44:30;1.40;;;1.30;;
42132;SDS011;70517;48.192;16.278;2023-07-28T09:47:30;1.60;;;1.50;;
42132;SDS011;70517;48.192;16.278;2023-07-28T09:50:32;1.52;;;1.42;;
42132;SDS011;70517;48.192;16.278;2023-07-28T09:53:34;2.00;;;1.80;;
42132;SDS011;70517;48.192;16.278;2023-07-28T09:56:36;1.88;;;1.70;;
42132;SDS011;70517;48.192;16.278;2023-07-28T09:59:40;2.55;;;1.90;;
42132;SDS011;70517;48.192;16.278;2023-07-28T10:02:41;1.90;;;1.80;;
42132;SDS011;70517;48.192;16.278;2023-07-28T10:05:41;1.52;;;1.42;;
42132;SDS011;70517;48.192;16.278;2023-07-28T10:08:42;1.98;;;1.77;;
42132;SDS011;70517;48.192;16.278;2023-07-28T10:11:43;1.70;;;1.60;;
42132;SDS011;70517;48.192;16.278;2023-07-28T10:14:43;4.57;;;1.70;;
42132;SDS011;70517;48.192;16.278;2023-07-28T10:17:46;2.08;;;1.80;;
42132;SDS011;70517;48.192;16.278;2023-07-28T10:20:49;2.00;;;1.80;;
42132;SDS011;70517;48.192;16.278;2023-07-28T10:42:30;2.70;;;1.52;;
42132;SDS011;70517;48.192;16.278;2023-07-28T10:45:12;1.75;;;1.65;;
42132;SDS011;70517;48.192;16.278;2023-07-28T10:48:12;1.63;;;1.52;;
42132;SDS011;70517;48.192;16.278;2023-07-28T10:51:19;1.77;;;1.67;;
42132;SDS011;70517;48.192;16.278;2023-07-28T10:54:19;2.88;;;1.40;;
42132;SDS011;70517;48.192;16.278;2023-07-28T10:57:20;1.73;;;1.40;;
42132;SDS011;70517;48.192;16.278;2023-07-28T11:00:21;2.03;;;1.17;;
42132;SDS011;70517;48.192;16.278;2023-07-28T11:03:22;1.63;;;1.42;;
42132;SDS011;70517;48.192;16.278;2023-07-28T11:06:22;1.35;;;1.25;;
42132;SDS011;70517;48.192;16.278;2023-07-28T11:09:22;1.13;;;1.03;;
42132;SDS011;70517;48.192;16.278;2023-07-28T11:12:23;0.90;;;0.90;;
42132;SDS011;70517;48.192;16.278;2023-07-28T11:15:24;1.13;;;0.95;;
42132;SDS011;70517;48.192;16.278;2023-07-28T11:18:25;1.83;;;1.02;;
42132;SDS011;70517;48.192;16.278;2023-07-28T11:21:26;1.15;;;1.02;;
42132;SDS011;70517;48.192;16.278;2023-07-28T11:24:26;3.10;;;1.20;;
42132;SDS011;70517;48.192;16.278;2023-07-28T11:27:26;1.27;;;1.10;;
42132;SDS011;70517;48.192;16.278;2023-07-28T11:30:27;1.30;;;1.20;;
42132;SDS011;70517;48.192;16.278;2023-07-28T11:33:28;3.00;;;1.43;;
42132;SDS011;70517;48.192;16.278;2023-07-28T11:36:29;1.52;;;1.42;;
42132;SDS011;70517;48.192;16.278;2023-07-28T11:39:29;1.30;;;1.20;;
42132;SDS011;70517;48.192;16.278;2023-07-28T11:42:31;1.33;;;1.23;;
42132;SDS011;70517;48.192;16.278;2023-07-28T11:45:31;1.53;;;1.43;;
42132;SDS011;70517;48.192;16.278;2023-07-28T11:48:31;1.55;;;1.45;;
42132;SDS011;70517;48.192;16.278;2023-07-28T11:51:32;1.30;;;1.20;;
42132;SDS011;70517;48.192;16.278;2023-07-28T11:54:36;1.60;;;1.50;;
42132;SDS011;70517;48.192;16.278;2023-07-28T11:57:36;1.42;;;1.33;;
42132;SDS011;70517;48.192;16.278;2023-07-28T12:00:37;1.63;;;1.53;;
42132;SDS011;70517;48.192;16.278;2023-07-28T12:03:38;1.25;;;1.15;;
42132;SDS011;70517;48.192;16.278;2023-07-28T12:06:59;1.50;;;1.40;;
42132;SDS011;70517;48.192;16.278;2023-07-28T12:10:05;1.70;;;1.60;;
42132;SDS011;70517;48.192;16.278;2023-07-28T12:13:26;2.13;;;1.55;;
42132;SDS011;70517;48.192;16.278;2023-07-28T12:16:39;1.40;;;1.30;;
42132;SDS011;70517;48.192;16.278;2023-07-28T12:22:59;1.67;;;1.58;;
42132;SDS011;70517;48.192;16.278;2023-07-28T12:26:06;1.50;;;1.40;;
42132;SDS011;70517;48.192;16.278;2023-07-28T12:29:14;1.30;;;1.20;;
42132;SDS011;70517;48.192;16.278;2023-07-28T12:32:14;2.60;;;1.40;;
42132;SDS011;70517;48.192;16.278;2023-07-28T12:35:14;1.67;;;1.57;;
42132;SDS011;70517;48.192;16.278;2023-07-28T12:38:20;1.60;;;1.50;;
42132;SDS011;70517;48.192;16.278;2023-07-28T12:41:50;1.67;;;1.58;;
42132;SDS011;70517;48.192;16.278;2023-07-28T12:45:09;1.67;;;1.58;;
42132;SDS011;70517;48.192;16.278;2023-07-28T12:48:15;1.52;;;1.42;;
42132;SDS011;70517;48.192;16.278;2023-07-28T12:51:16;1.80;;;1.33;;
42132;SDS011;70517;48.192;16.278;2023-07-28T12:54:16;2.73;;;1.30;;
42132;SDS011;70517;48.192;16.278;2023-07-28T12:57:16;2.93;;;1.40;;
42132;SDS011;70517;48.192;16.278;2023-07-28T13:00:16;1.60;;;1.50;;
42132;SDS011;70517;48.192;16.278;2023-07-28T13:03:18;3.50;;;1.20;;
42132;SDS011;70517;48.192;16.278;2023-07-28T13:06:18;1.60;;;1.50;;
42132;SDS011;70517;48.192;16.278;2023-07-28T13:09:19;1.95;;;1.67;;
42132;SDS011;70517;48.192;16.278;2023-07-28T13:12:19;1.77;;;1.37;;
42132;SDS011;70517;48.192;16.278;2023-07-28T13:15:19;1.20;;;1.10;;
42132;SDS011;70517;48.192;16.278;2023-07-28T13:18:20;1.08;;;1.00;;
42132;SDS011;70517;48.192;16.278;2023-07-28T13:21:20;1.92;;;1.27;;
42132;SDS011;70517;48.192;16.278;2023-07-28T13:24:21;1.30;;;1.20;;
42132;SDS011;70517;48.192;16.278;2023-07-28T13:27:21;1.23;;;1.13;;
42132;SDS011;70517;48.192;16.278;2023-07-28T13:30:21;1.50;;;1.20;;
42132;SDS011;70517;48.192;16.278;2023-07-28T13:33:21;1.30;;;1.20;;
42132;SDS011;70517;48.192;16.278;2023-07-28T13:36:31;2.78;;;1.34;;
42132;SDS011;70517;48.192;16.278;2023-07-28T13:39:31;1.97;;;1.27;;
42132;SDS011;70517;48.192;16.278;2023-07-28T13:42:31;2.10;;;1.43;;
42132;SDS011;70517;48.192;16.278;2023-07-28T13:45:31;1.40;;;1.20;;
42132;SDS011;70517;48.192;16.278;2023-07-28T13:48:32;1.53;;;1.43;;
42132;SDS011;70517;48.192;16.278;2023-07-28T13:51:32;1.27;;;1.17;;
42132;SDS011;70517;48.192;16.278;2023-07-28T13:54:32;1.33;;;1.23;;
42132;SDS011;70517;48.192;16.278;2023-07-28T13:57:33;1.60;;;1.50;;
42132;SDS011;70517;48.192;16.278;2023-07-28T14:00:33;1.90;;;1.40;;
42132;SDS011;70517;48.192;16.278;2023-07-28T14:03:34;1.70;;;1.50;;
42132;SDS011;70517;48.192;16.278;2023-07-28T14:06:34;1.43;;;1.33;;
42132;SDS011;70517;48.192;16.278;2023-07-28T14:09:34;1.63;;;1.53;;
42132;SDS011;70517;48.192;16.278;2023-07-28T14:12:34;1.70;;;1.60;;
42132;SDS011;70517;48.192;16.278;2023-07-28T14:15:35;1.80;;;1.70;;
42132;SDS011;70517;48.192;16.278;2023-07-28T14:18:37;1.45;;;1.35;;
42132;SDS011;70517;48.192;16.278;2023-07-28T14:21:40;1.52;;;1.42;;
42132;SDS011;70517;48.192;16.278;2023-07-28T14:24:40;1.57;;;1.40;;
42132;SDS011;70517;48.192;16.278;2023-07-28T14:27:40;3.03;;;2.83;;
42132;SDS011;70517;48.192;16.278;2023-07-28T14:30:41;2.67;;;2.47;;
42132;SDS011;70517;48.192;16.278;2023-07-28T14:33:46;3.15;;;1.83;;
42132;SDS011;70517;48.192;16.278;2023-07-28T14:36:46;2.33;;;2.13;;
42132;SDS011;70517;48.192;16.278;2023-07-28T14:39:46;2.70;;;1.60;;
42132;SDS011;70517;48.192;16.278;2023-07-28T14:42:46;3.33;;;1.90;;
42132;SDS011;70517;48.192;16.278;2023-07-28T14:45:48;1.57;;;1.43;;
42132;SDS011;70517;48.192;16.278;2023-07-28T14:48:49;2.22;;;1.25;;
42132;SDS011;70517;48.192;16.278;2023-07-28T14:51:52;1.45;;;1.35;;
42132;SDS011;70517;48.192;16.278;2023-07-28T14:54:52;2.10;;;1.90;;
42132;SDS011;70517;48.192;16.278;2023-07-28T14:57:52;2.67;;;2.47;;
42132;SDS011;70517;48.192;16.278;2023-07-28T15:00:52;1.90;;;1.80;;
42132;SDS011;70517;48.192;16.278;2023-07-28T15:03:52;1.50;;;1.40;;
42132;SDS011;70517;48.192;16.278;2023-07-28T15:06:53;1.50;;;1.40;;
42132;SDS011;70517;48.192;16.278;2023-07-28T15:09:53;1.60;;;1.50;;
42132;SDS011;70517;48.192;16.278;2023-07-28T15:12:53;1.93;;;1.37;;
42132;SDS011;70517;48.192;16.278;2023-07-28T15:15:54;1.70;;;1.60;;
42132;SDS011;70517;48.192;16.278;2023-07-28T15:18:54;1.27;;;1.17;;
42132;SDS011;70517;48.192;16.278;2023-07-28T15:21:55;1.33;;;1.23;;
42132;SDS011;70517;48.192;16.278;2023-07-28T15:24:56;4.13;;;2.35;;
42132;SDS011;70517;48.192;16.278;2023-07-28T15:27:57;2.97;;;1.70;;
42132;SDS011;70517;48.192;16.278;2023-07-28T15:30:57;2.13;;;1.88;;
42132;SDS011;70517;48.192;16.278;2023-07-28T15:33:57;1.47;;;1.37;;
42132;SDS011;70517;48.192;16.278;2023-07-28T15:36:57;2.07;;;1.73;;
42132;SDS011;70517;48.192;16.278;2023-07-28T15:40:02;1.63;;;1.52;;
42132;SDS011;70517;48.192;16.278;2023-07-28T15:43:02;1.70;;;1.60;;
42132;SDS011;70517;48.192;16.278;2023-07-28T15:46:02;1.50;;;1.40;;
42132;SDS011;70517;48.192;16.278;2023-07-28T15:49:04;2.38;;;1.35;;
42132;SDS011;70517;48.192;16.278;2023-07-28T15:52:06;2.58;;;1.90;;
42132;SDS011;70517;48.192;16.278;2023-07-28T15:55:06;3.08;;;2.78;;
42132;SDS011;70517;48.192;16.278;2023-07-28T15:58:06;2.95;;;2.33;;
42132;SDS011;70517;48.192;16.278;2023-07-28T16:01:07;3.17;;;2.53;;
42132;SDS011;70517;48.192;16.278;2023-07-28T16:04:07;2.10;;;1.90;;
42132;SDS011;70517;48.192;16.278;2023-07-28T16:07:08;1.65;;;1.55;;
42132;SDS011;70517;48.192;16.278;2023-07-28T16:10:08;1.75;;;1.55;;
42132;SDS011;70517;48.192;16.278;2023-07-28T16:13:11;1.60;;;1.50;;
42132;SDS011;70517;48.192;16.278;2023-07-28T16:16:11;2.03;;;1.67;;
42132;SDS011;70517;48.192;16.278;2023-07-28T16:19:12;1.60;;;1.50;;
42132;SDS011;70517;48.192;16.278;2023-07-28T16:22:12;2.13;;;1.45;;
42132;SDS011;70517;48.192;16.278;2023-07-28T16:25:13;2.15;;;1.60;;
42132;SDS011;70517;48.192;16.278;2023-07-28T16:28:13;1.52;;;1.42;;
42132;SDS011;70517;48.192;16.278;2023-07-28T16:31:14;1.52;;;1.42;;
42132;SDS011;70517;48.192;16.278;2023-07-28T16:34:14;2.63;;;2.00;;
42132;SDS011;70517;48.192;16.278;2023-07-28T16:37:14;2.85;;;2.00;;
42132;SDS011;70517;48.192;16.278;2023-07-28T16:40:15;2.00;;;1.67;;
42132;SDS011;70517;48.192;16.278;2023-07-28T16:43:15;1.90;;;1.67;;
42132;SDS011;70517;48.192;16.278;2023-07-28T16:46:15;1.73;;;1.37;;
42132;SDS011;70517;48.192;16.278;2023-07-28T16:49:15;2.57;;;1.63;;
42132;SDS011;70517;48.192;16.278;2023-07-28T16:52:16;2.90;;;2.60;;
42132;SDS011;70517;48.192;16.278;2023-07-28T16:55:16;2.10;;;1.90;;
42132;SDS011;70517;48.192;16.278;2023-07-28T16:58:16;2.20;;;1.75;;
42132;SDS011;70517;48.192;16.278;2023-07-28T17:01:17;3.75;;;1.92;;
42132;SDS011;70517;48.192;16.278;2023-07-28T17:04:19;3.28;;;2.97;;
42132;SDS011;70517;48.192;16.278;2023-07-28T17:07:19;2.15;;;1.95;;
42132;SDS011;70517;48.192;16.278;2023-07-28T17:10:19;2.13;;;1.95;;
42132;SDS011;70517;48.192;16.278;2023-07-28T17:13:20;1.60;;;1.50;;
42132;SDS011;70517;48.192;16.278;2023-07-28T17:16:21;1.52;;;1.38;;
42132;SDS011;70517;48.192;16.278;2023-07-28T17:19:22;1.70;;;1.60;;
42132;SDS011;70517;48.192;16.278;2023-07-28T17:22:22;1.67;;;1.58;;
42132;SDS011;70517;48.192;16.278;2023-07-28T17:25:22;1.88;;;1.67;;
42132;SDS011;70517;48.192;16.278;2023-07-28T17:28:22;1.60;;;1.50;;
42132;SDS011;70517;48.192;16.278;2023-07-28T17:31:23;3.80;;;3.30;;
42132;SDS011;70517;48.192;16.278;2023-07-28T17:34:23;2.50;;;2.20;;
42132;SDS011;70517;48.192;16.278;2023-07-28T17:37:23;2.17;;;1.67;;
42132;SDS011;70517;48.192;16.278;2023-07-28T17:40:23;2.20;;;2.00;;
42132;SDS011;70517;48.192;16.278;2023-07-28T17:43:23;2.50;;;2.30;;
42132;SDS011;70517;48.192;16.278;2023-07-28T17:46:24;4.90;;;2.00;;
42132;SDS011;70517;48.192;16.278;2023-07-28T17:49:24;2.20;;;2.00;;
42132;SDS011;70517;48.192;16.278;2023-07-28T17:52:24;3.95;;;1.60;;
42132;SDS011;70517;48.192;16.278;2023-07-28T17:55:25;1.90;;;1.70;;
42132;SDS011;70517;48.192;16.278;2023-07-28T17:58:25;2.55;;;1.60;;
42132;SDS011;70517;48.192;16.278;2023-07-28T18:01:26;1.55;;;1.40;;
42132;SDS011;70517;48.192;16.278;2023-07-28T18:04:26;2.80;;;2.10;;
42132;SDS011;70517;48.192;16.278;2023-07-28T18:07:26;2.03;;;1.60;;
42132;SDS011;70517;48.192;16.278;2023-07-28T18:10:26;2.07;;;1.70;;
42132;SDS011;70517;48.192;16.278;2023-07-28T18:13:26;2.00;;;1.80;;
42132;SDS011;70517;48.192;16.278;2023-07-28T18:16:27;2.20;;;1.67;;
42132;SDS011;70517;48.192;16.278;2023-07-28T18:19:27;2.30;;;1.95;;
42132;SDS011;70517;48.192;16.278;2023-07-28T18:22:27;1.40;;;1.27;;
42132;SDS011;70517;48.192;16.278;2023-07-28T18:25:27;3.27;;;1.77;;
42132;SDS011;70517;48.192;16.278;2023-07-28T18:28:28;2.35;;;1.83;;
42132;SDS011;70517;48.192;16.278;2023-07-28T18:31:28;1.90;;;1.60;;
42132;SDS011;70517;48.192;16.278;2023-07-28T18:34:28;2.43;;;1.50;;
42132;SDS011;70517;48.192;16.278;2023-07-28T18:37:29;3.33;;;2.10;;
42132;SDS011;70517;48.192;16.278;2023-07-28T18:40:29;2.50;;;1.97;;
42132;SDS011;70517;48.192;16.278;2023-07-28T18:43:30;1.83;;;1.65;;
42132;SDS011;70517;48.192;16.278;2023-07-28T18:46:32;2.00;;;1.65;;
42132;SDS011;70517;48.192;16.278;2023-07-28T18:49:32;1.67;;;1.57;;
42132;SDS011;70517;48.192;16.278;2023-07-28T18:52:33;2.42;;;2.03;;
42132;SDS011;70517;48.192;16.278;2023-07-28T18:55:33;3.10;;;1.80;;
42132;SDS011;70517;48.192;16.278;2023-07-28T18:58:33;3.83;;;2.10;;
42132;SDS011;70517;48.192;16.278;2023-07-28T19:01:33;1.95;;;1.80;;
42132;SDS011;70517;48.192;16.278;2023-07-28T19:04:34;1.73;;;1.50;;
42132;SDS011;70517;48.192;16.278;2023-07-28T19:07:34;1.60;;;1.50;;
42132;SDS011;70517;48.192;16.278;2023-07-28T19:10:35;2.25;;;2.05;;
42132;SDS011;70517;48.192;16.278;2023-07-28T19:13:35;2.42;;;2.22;;
42132;SDS011;70517;48.192;16.278;2023-07-28T19:16:35;2.35;;;2.15;;
42132;SDS011;70517;48.192;16.278;2023-07-28T19:19:36;3.05;;;1.95;;
42132;SDS011;70517;48.192;16.278;2023-07-28T19:22:36;1.80;;;1.67;;
42132;SDS011;70517;48.192;16.278;2023-07-28T19:25:37;1.42;;;1.33;;
42132;SDS011;70517;48.192;16.278;2023-07-28T19:28:37;1.73;;;1.63;;
42132;SDS011;70517;48.192;16.278;2023-07-28T19:31:37;2.20;;;1.27;;
42132;SDS011;70517;48.192;16.278;2023-07-28T19:34:38;2.13;;;1.77;;
42132;SDS011;70517;48.192;16.278;2023-07-28T19:37:38;1.60;;;1.50;;
42132;SDS011;70517;48.192;16.278;2023-07-28T19:40:41;2.42;;;2.03;;
42132;SDS011;70517;48.192;16.278;2023-07-28T19:43:41;2.47;;;1.93;;
42132;SDS011;70517;48.192;16.278;2023-07-28T19:46:41;1.93;;;1.73;;
42132;SDS011;70517;48.192;16.278;2023-07-28T19:49:42;2.10;;;1.80;;
42132;SDS011;70517;48.192;16.278;2023-07-28T19:52:42;5.88;;;4.95;;
42132;SDS011;70517;48.192;16.278;2023-07-28T19:55:42;3.60;;;3.30;;
42132;SDS011;70517;48.192;16.278;2023-07-28T19:58:43;3.72;;;2.83;;
42132;SDS011;70517;48.192;16.278;2023-07-28T20:01:43;3.10;;;2.47;;
42132;SDS011;70517;48.192;16.278;2023-07-28T20:04:43;1.80;;;1.67;;
42132;SDS011;70517;48.192;16.278;2023-07-28T20:07:44;2.50;;;2.00;;
42132;SDS011;70517;48.192;16.278;2023-07-28T20:10:45;3.65;;;2.72;;
42132;SDS011;70517;48.192;16.278;2023-07-28T20:13:45;3.47;;;2.92;;
42132;SDS011;70517;48.192;16.278;2023-07-28T20:16:45;2.13;;;1.80;;
42132;SDS011;70517;48.192;16.278;2023-07-28T20:19:45;3.03;;;2.70;;
42132;SDS011;70517;48.192;16.278;2023-07-28T20:22:45;2.27;;;2.03;;
42132;SDS011;70517;48.192;16.278;2023-07-28T20:25:48;2.28;;;1.80;;
42132;SDS011;70517;48.192;16.278;2023-07-28T20:28:48;3.60;;;2.20;;
42132;SDS011;70517;48.192;16.278;2023-07-28T20:31:49;2.17;;;1.88;;
42132;SDS011;70517;48.192;16.278;2023-07-28T20:34:49;2.65;;;1.92;;
42132;SDS011;70517;48.192;16.278;2023-07-28T20:37:49;2.20;;;1.63;;
42132;SDS011;70517;48.192;16.278;2023-07-28T20:40:52;1.52;;;1.42;;
42132;SDS011;70517;48.192;16.278;2023-07-28T20:43:52;2.20;;;1.83;;
42132;SDS011;70517;48.192;16.278;2023-07-28T20:46:54;2.13;;;1.90;;
42132;SDS011;70517;48.192;16.278;2023-07-28T20:49:54;1.83;;;1.67;;
42132;SDS011;70517;48.192;16.278;2023-07-28T20:52:54;2.47;;;1.70;;